Главная страница
METAR-TAF:

METAR-TAF

Аэропорты :

Водопад Виктория, Зимбабве

широта: 18-06S, долгота: 025-51E, высота над уровнем моря: 1061 м

Текущие метеонаблюдения

Эта сводка был подготовлена 1 час и 5 минут назад, в 12:00 UTC
Ветер 6 Узел переменных направлений
Температура 33°C
Влажность 32%
Давление 1015 hPa
Видимость 10 км и более
Нет облачности ниже 1500 м, и нет кучево-дождевой облачности

METAR: FVFA 031200Z VRB06KT CAVOK 33/14 Q1015 NOSIG

Время: 15:05 (13:05 UTC)


TAF: отсутствует

Метеонаблюдения и прогнозы для более 4000 аэропортов (сводки METAR и TAF).

Имеющиеся станции представлены на карте желтыми и красными точками.

Чтобы увидеть название станции, наведите на нее мышь.

Затем щелкните, чтобы увидеть метеонаблюдения и метеопрогнозы.

Управление картой: чтобы увеличить масштаб, щелкните зеленые кнопки с черным крестиком; чтобы уменьшить масштаб, щелкните зеленую кнопку с тире; для просмотра соседних карт щелкайте зеленые стрелки.


METAR-TAF: